sensor_id;sensor_type;location;lat;lon;timestamp;pressure;altitude;pressure_sealevel;temperature;humidity
65614;BME280;52283;49.292;10.572;2022-10-16T00:00:28;96404.84;;;14.06;100.00
65614;BME280;52283;49.292;10.572;2022-10-16T00:02:55;96415.16;;;13.98;100.00
65614;BME280;52283;49.292;10.572;2022-10-16T00:05:22;96420.25;;;13.99;100.00
65614;BME280;52283;49.292;10.572;2022-10-16T00:07:49;96414.78;;;14.07;100.00
65614;BME280;52283;49.292;10.572;2022-10-16T00:10:16;96424.28;;;14.04;100.00
65614;BME280;52283;49.292;10.572;2022-10-16T00:12:42;96424.03;;;14.02;100.00
65614;BME280;52283;49.292;10.572;2022-10-16T00:15:09;96421.47;;;14.04;100.00
65614;BME280;52283;49.292;10.572;2022-10-16T00:17:36;96421.22;;;14.02;100.00
65614;BME280;52283;49.292;10.572;2022-10-16T00:20:03;96424.16;;;13.91;100.00
65614;BME280;52283;49.292;10.572;2022-10-16T00:22:31;96413.44;;;13.89;100.00
65614;BME280;52283;49.292;10.572;2022-10-16T00:24:57;96418.75;;;13.93;100.00
65614;BME280;52283;49.292;10.572;2022-10-16T00:27:24;96430.22;;;13.95;100.00
65614;BME280;52283;49.292;10.572;2022-10-16T00:29:50;96427.19;;;13.93;100.00
65614;BME280;52283;49.292;10.572;2022-10-16T00:32:17;96433.03;;;13.95;100.00
65614;BME280;52283;49.292;10.572;2022-10-16T00:34:43;96427.41;;;13.95;100.00
65614;BME280;52283;49.292;10.572;2022-10-16T00:37:10;96420.56;;;13.90;100.00
65614;BME280;52283;49.292;10.572;2022-10-16T00:39:38;96432.34;;;13.89;100.00
65614;BME280;52283;49.292;10.572;2022-10-16T00:42:04;96426.72;;;13.89;100.00
65614;BME280;52283;49.292;10.572;2022-10-16T00:44:49;96426.56;;;13.81;100.00
65614;BME280;52283;49.292;10.572;2022-10-16T00:47:21;96429.38;;;13.81;100.00
65614;BME280;52283;49.292;10.572;2022-10-16T00:49:50;96426.03;;;13.83;100.00
65614;BME280;52283;49.292;10.572;2022-10-16T00:52:19;96426.78;;;13.83;100.00
65614;BME280;52283;49.292;10.572;2022-10-16T00:54:49;96436.97;;;13.86;100.00
65614;BME280;52283;49.292;10.572;2022-10-16T00:57:16;96430.88;;;13.82;100.00
65614;BME280;52283;49.292;10.572;2022-10-16T00:59:42;96443.88;;;13.85;100.00
65614;BME280;52283;49.292;10.572;2022-10-16T01:02:13;96437.03;;;13.81;100.00
65614;BME280;52283;49.292;10.572;2022-10-16T01:04:41;96434.00;;;13.79;100.00
65614;BME280;52283;49.292;10.572;2022-10-16T01:07:13;96439.13;;;13.75;100.00
65614;BME280;52283;49.292;10.572;2022-10-16T01:09:50;96439.41;;;13.71;100.00
65614;BME280;52283;49.292;10.572;2022-10-16T01:12:23;96441.22;;;13.68;100.00
65614;BME280;52283;49.292;10.572;2022-10-16T01:14:54;96437.13;;;13.69;100.00
65614;BME280;52283;49.292;10.572;2022-10-16T01:17:27;96433.03;;;13.70;100.00
65614;BME280;52283;49.292;10.572;2022-10-16T01:20:03;96433.78;;;13.71;100.00
65614;BME280;52283;49.292;10.572;2022-10-16T01:22:43;96432.75;;;13.74;100.00
65614;BME280;52283;49.292;10.572;2022-10-16T01:25:21;96426.41;;;13.68;100.00
65614;BME280;52283;49.292;10.572;2022-10-16T01:27:52;96440.47;;;13.68;100.00
65614;BME280;52283;49.292;10.572;2022-10-16T01:30:23;96440.28;;;13.60;100.00
65614;BME280;52283;49.292;10.572;2022-10-16T01:32:55;96445.66;;;13.58;100.00
65614;BME280;52283;49.292;10.572;2022-10-16T01:35:26;96449.22;;;13.59;100.00
65614;BME280;52283;49.292;10.572;2022-10-16T01:37:56;96461.00;;;13.57;100.00
65614;BME280;52283;49.292;10.572;2022-10-16T01:40:26;96455.59;;;13.59;100.00
65614;BME280;52283;49.292;10.572;2022-10-16T01:42:58;96468.59;;;13.62;100.00
65614;BME280;52283;49.292;10.572;2022-10-16T01:45:28;96457.13;;;13.60;100.00
65614;BME280;52283;49.292;10.572;2022-10-16T01:47:56;96461.22;;;13.59;100.00
65614;BME280;52283;49.292;10.572;2022-10-16T01:50:24;96465.78;;;13.62;100.00
65614;BME280;52283;49.292;10.572;2022-10-16T01:52:54;96462.75;;;13.60;100.00
65614;BME280;52283;49.292;10.572;2022-10-16T01:55:25;96461.47;;;13.61;100.00
65614;BME280;52283;49.292;10.572;2022-10-16T01:57:56;96466.56;;;13.63;100.00
65614;BME280;52283;49.292;10.572;2022-10-16T02:00:26;96467.59;;;13.60;100.00
65614;BME280;52283;49.292;10.572;2022-10-16T02:02:53;96459.94;;;13.60;100.00
65614;BME280;52283;49.292;10.572;2022-10-16T02:05:25;96456.13;;;13.58;100.00
65614;BME280;52283;49.292;10.572;2022-10-16T02:07:53;96444.91;;;13.58;100.00
65614;BME280;52283;49.292;10.572;2022-10-16T02:10:20;96457.44;;;13.57;100.00
65614;BME280;52283;49.292;10.572;2022-10-16T02:12:50;96458.19;;;13.57;100.00
65614;BME280;52283;49.292;10.572;2022-10-16T02:15:22;96461.22;;;13.59;100.00
65614;BME280;52283;49.292;10.572;2022-10-16T02:17:49;96456.38;;;13.60;100.00
65614;BME280;52283;49.292;10.572;2022-10-16T02:20:16;96460.16;;;13.62;100.00
65614;BME280;52283;49.292;10.572;2022-10-16T02:22:45;96448.19;;;13.62;100.00
65614;BME280;52283;49.292;10.572;2022-10-16T02:25:18;96451.53;;;13.60;100.00
65614;BME280;52283;49.292;10.572;2022-10-16T02:27:53;96450.75;;;13.60;100.00
65614;BME280;52283;49.292;10.572;2022-10-16T02:30:27;96451.03;;;13.56;100.00
65614;BME280;52283;49.292;10.572;2022-10-16T02:32:55;96447.72;;;13.58;100.00
65614;BME280;52283;49.292;10.572;2022-10-16T02:35:25;96441.63;;;13.54;100.00
65614;BME280;52283;49.292;10.572;2022-10-16T02:37:53;96433.47;;;13.50;100.00
65614;BME280;52283;49.292;10.572;2022-10-16T02:40:21;96429.66;;;13.48;100.00
65614;BME280;52283;49.292;10.572;2022-10-16T02:42:50;96429.72;;;13.42;100.00
65614;BME280;52283;49.292;10.572;2022-10-16T02:45:17;96425.91;;;13.39;100.00
65614;BME280;52283;49.292;10.572;2022-10-16T02:47:45;96444.28;;;13.40;100.00
65614;BME280;52283;49.292;10.572;2022-10-16T02:50:12;96442.00;;;13.39;100.00
65614;BME280;52283;49.292;10.572;2022-10-16T02:52:38;96449.38;;;13.42;100.00
65614;BME280;52283;49.292;10.572;2022-10-16T02:55:06;96453.69;;;13.43;100.00
65614;BME280;52283;49.292;10.572;2022-10-16T02:57:32;96451.13;;;13.45;100.00
65614;BME280;52283;49.292;10.572;2022-10-16T02:59:59;96449.59;;;13.44;100.00
65614;BME280;52283;49.292;10.572;2022-10-16T03:02:25;96461.06;;;13.46;100.00
65614;BME280;52283;49.292;10.572;2022-10-16T03:04:53;96461.31;;;13.48;100.00
65614;BME280;52283;49.292;10.572;2022-10-16T03:07:19;96453.66;;;13.49;100.00
65614;BME280;52283;49.292;10.572;2022-10-16T03:09:46;96454.13;;;13.53;100.00
65614;BME280;52283;49.292;10.572;2022-10-16T03:12:12;96464.84;;;13.54;100.00
65614;BME280;52283;49.292;10.572;2022-10-16T03:14:39;96465.34;;;13.53;100.00
65614;BME280;52283;49.292;10.572;2022-10-16T03:17:06;96464.84;;;13.54;100.00
65614;BME280;52283;49.292;10.572;2022-10-16T03:19:32;96465.34;;;13.53;100.00
65614;BME280;52283;49.292;10.572;2022-10-16T03:22:01;96472.25;;;13.52;100.00
65614;BME280;52283;49.292;10.572;2022-10-16T03:24:27;96464.34;;;13.50;100.00
65614;BME280;52283;49.292;10.572;2022-10-16T03:26:54;96466.41;;;13.50;100.00
65614;BME280;52283;49.292;10.572;2022-10-16T03:29:20;96462.59;;;13.47;100.00
65614;BME280;52283;49.292;10.572;2022-10-16T03:31:47;96466.44;;;13.44;100.00
65614;BME280;52283;49.292;10.572;2022-10-16T03:34:14;96471.81;;;13.42;100.00
65614;BME280;52283;49.292;10.572;2022-10-16T03:36:41;96474.09;;;13.43;100.00
65614;BME280;52283;49.292;10.572;2022-10-16T03:39:08;96472.31;;;13.46;100.00
65614;BME280;52283;49.292;10.572;2022-10-16T03:41:35;96478.63;;;13.52;100.00
65614;BME280;52283;49.292;10.572;2022-10-16T03:44:01;96481.19;;;13.50;100.00
65614;BME280;52283;49.292;10.572;2022-10-16T03:46:28;96476.84;;;13.55;100.00
65614;BME280;52283;49.292;10.572;2022-10-16T03:48:54;96478.63;;;13.52;100.00
65614;BME280;52283;49.292;10.572;2022-10-16T03:51:21;96474.28;;;13.51;100.00
65614;BME280;52283;49.292;10.572;2022-10-16T03:53:47;96477.84;;;13.52;100.00
65614;BME280;52283;49.292;10.572;2022-10-16T03:56:15;96483.75;;;13.48;100.00
65614;BME280;52283;49.292;10.572;2022-10-16T03:58:42;96485.28;;;13.49;100.00
65614;BME280;52283;49.292;10.572;2022-10-16T04:01:08;96477.91;;;13.46;100.00
65614;BME280;52283;49.292;10.572;2022-10-16T04:03:35;96470.78;;;13.45;100.00
65614;BME280;52283;49.292;10.572;2022-10-16T04:06:01;96469.50;;;13.46;100.00
65614;BME280;52283;49.292;10.572;2022-10-16T04:08:27;96468.72;;;13.46;100.00
65614;BME280;52283;49.292;10.572;2022-10-16T04:10:54;96468.50;;;13.43;100.00
65614;BME280;52283;49.292;10.572;2022-10-16T04:13:22;96471.31;;;13.43;100.00
65614;BME280;52283;49.292;10.572;2022-10-16T04:15:48;96467.50;;;13.41;100.00
65614;BME280;52283;49.292;10.572;2022-10-16T04:18:15;96470.06;;;13.39;100.00
65614;BME280;52283;49.292;10.572;2022-10-16T04:20:41;96475.16;;;13.40;100.00
65614;BME280;52283;49.292;10.572;2022-10-16T04:23:08;96475.91;;;13.41;100.00
65614;BME280;52283;49.292;10.572;2022-10-16T04:25:34;96473.41;;;13.37;100.00
65614;BME280;52283;49.292;10.572;2022-10-16T04:28:01;96467.78;;;13.37;100.00
65614;BME280;52283;49.292;10.572;2022-10-16T04:30:28;96468.84;;;13.34;100.00
65614;BME280;52283;49.292;10.572;2022-10-16T04:32:55;96472.41;;;13.35;100.00
65614;BME280;52283;49.292;10.572;2022-10-16T04:35:21;96472.16;;;13.33;100.00
65614;BME280;52283;49.292;10.572;2022-10-16T04:37:48;96481.34;;;13.33;100.00
65614;BME280;52283;49.292;10.572;2022-10-16T04:40:16;96480.06;;;13.34;100.00
65614;BME280;52283;49.292;10.572;2022-10-16T04:42:43;96480.84;;;13.29;100.00
65614;BME280;52283;49.292;10.572;2022-10-16T04:45:09;96488.50;;;13.29;100.00
65614;BME280;52283;49.292;10.572;2022-10-16T04:47:37;96493.34;;;13.28;100.00
65614;BME280;52283;49.292;10.572;2022-10-16T04:50:05;96494.91;;;13.24;100.00
65614;BME280;52283;49.292;10.572;2022-10-16T04:52:31;96498.00;;;13.20;100.00
65614;BME280;52283;49.292;10.572;2022-10-16T04:54:58;96490.59;;;13.17;100.00
65614;BME280;52283;49.292;10.572;2022-10-16T04:57:27;96495.47;;;13.11;100.00
65614;BME280;52283;49.292;10.572;2022-10-16T04:59:53;96501.59;;;13.09;100.00
65614;BME280;52283;49.292;10.572;2022-10-16T05:02:20;96494.72;;;13.10;100.00
65614;BME280;52283;49.292;10.572;2022-10-16T05:04:48;96507.72;;;13.13;100.00
65614;BME280;52283;49.292;10.572;2022-10-16T05:07:14;96502.63;;;13.12;100.00
65614;BME280;52283;49.292;10.572;2022-10-16T05:09:41;96509.50;;;13.11;100.00
65614;BME280;52283;49.292;10.572;2022-10-16T05:12:07;96511.06;;;13.12;100.00
65614;BME280;52283;49.292;10.572;2022-10-16T05:14:33;96515.88;;;13.11;100.00
65614;BME280;52283;49.292;10.572;2022-10-16T05:17:00;96525.06;;;13.12;100.00
65614;BME280;52283;49.292;10.572;2022-10-16T05:19:27;96524.03;;;13.09;100.00
65614;BME280;52283;49.292;10.572;2022-10-16T05:21:55;96526.84;;;13.09;100.00
65614;BME280;52283;49.292;10.572;2022-10-16T05:24:21;96523.03;;;13.07;100.00
65614;BME280;52283;49.292;10.572;2022-10-16T05:26:47;96523.56;;;13.05;100.00
65614;BME280;52283;49.292;10.572;2022-10-16T05:29:14;96526.63;;;13.07;100.00
65614;BME280;52283;49.292;10.572;2022-10-16T05:31:41;96527.38;;;13.08;100.00
65614;BME280;52283;49.292;10.572;2022-10-16T05:34:07;96535.25;;;13.09;100.00
65614;BME280;52283;49.292;10.572;2022-10-16T05:36:34;96531.19;;;13.10;100.00
65614;BME280;52283;49.292;10.572;2022-10-16T05:39:02;96529.91;;;13.11;100.00
65614;BME280;52283;49.292;10.572;2022-10-16T05:41:28;96546.47;;;13.15;100.00
65614;BME280;52283;49.292;10.572;2022-10-16T05:43:55;96547.25;;;13.16;100.00
65614;BME280;52283;49.292;10.572;2022-10-16T05:46:21;96553.13;;;13.18;100.00
65614;BME280;52283;49.292;10.572;2022-10-16T05:48:48;96545.47;;;13.18;100.00
65614;BME280;52283;49.292;10.572;2022-10-16T05:51:14;96547.50;;;13.18;100.00
65614;BME280;52283;49.292;10.572;2022-10-16T05:53:41;96550.31;;;13.18;100.00
65614;BME280;52283;49.292;10.572;2022-10-16T05:56:10;96545.72;;;13.15;100.00
65614;BME280;52283;49.292;10.572;2022-10-16T05:58:38;96545.72;;;13.15;100.00
65614;BME280;52283;49.292;10.572;2022-10-16T06:01:07;96547.25;;;13.16;100.00
65614;BME280;52283;49.292;10.572;2022-10-16T06:03:33;96551.34;;;13.15;100.00
65614;BME280;52283;49.292;10.572;2022-10-16T06:06:07;96550.31;;;13.18;100.00
65614;BME280;52283;49.292;10.572;2022-10-16T06:08:34;96557.94;;;13.17;100.00
65614;BME280;52283;49.292;10.572;2022-10-16T06:11:01;96548.50;;;13.20;100.00
65614;BME280;52283;49.292;10.572;2022-10-16T06:13:29;96556.13;;;13.25;100.00
65614;BME280;52283;49.292;10.572;2022-10-16T06:15:57;96553.38;;;13.20;100.00
65614;BME280;52283;49.292;10.572;2022-10-16T06:18:24;96561.53;;;13.18;100.00
65614;BME280;52283;49.292;10.572;2022-10-16T06:20:51;96555.13;;;13.17;100.00
65614;BME280;52283;49.292;10.572;2022-10-16T06:23:17;96554.38;;;13.17;100.00
65614;BME280;52283;49.292;10.572;2022-10-16T06:25:44;96557.41;;;13.24;100.00
65614;BME280;52283;49.292;10.572;2022-10-16T06:28:10;96566.34;;;13.23;100.00
65614;BME280;52283;49.292;10.572;2022-10-16T06:30:38;96562.03;;;13.22;100.00
65614;BME280;52283;49.292;10.572;2022-10-16T06:33:05;96567.34;;;13.25;100.00
65614;BME280;52283;49.292;10.572;2022-10-16T06:35:31;96561.97;;;13.27;100.00
65614;BME280;52283;49.292;10.572;2022-10-16T06:37:58;96567.59;;;13.27;100.00
65614;BME280;52283;49.292;10.572;2022-10-16T06:40:24;96559.41;;;13.29;100.00
65614;BME280;52283;49.292;10.572;2022-10-16T06:42:50;96578.53;;;13.36;100.00
65614;BME280;52283;49.292;10.572;2022-10-16T06:45:17;96587.41;;;13.46;100.00
65614;BME280;52283;49.292;10.572;2022-10-16T06:47:45;96588.91;;;13.47;100.00
65614;BME280;52283;49.292;10.572;2022-10-16T06:50:11;96596.53;;;13.52;100.00
65614;BME280;52283;49.292;10.572;2022-10-16T06:52:38;96593.72;;;13.52;100.00
65614;BME280;52283;49.292;10.572;2022-10-16T06:55:05;96599.31;;;13.58;100.00
65614;BME280;52283;49.292;10.572;2022-10-16T06:57:32;96595.25;;;13.53;100.00
65614;BME280;52283;49.292;10.572;2022-10-16T06:59:58;96601.13;;;13.55;100.00
65614;BME280;52283;49.292;10.572;2022-10-16T07:02:25;96603.41;;;13.57;100.00
65614;BME280;52283;49.292;10.572;2022-10-16T07:04:53;96610.28;;;13.61;100.00
65614;BME280;52283;49.292;10.572;2022-10-16T07:07:19;96615.91;;;13.61;100.00
65614;BME280;52283;49.292;10.572;2022-10-16T07:09:45;96615.09;;;13.66;100.00
65614;BME280;52283;49.292;10.572;2022-10-16T07:12:12;96622.47;;;13.69;100.00
65614;BME280;52283;49.292;10.572;2022-10-16T07:14:38;96624.44;;;13.80;100.00
65614;BME280;52283;49.292;10.572;2022-10-16T07:17:05;96630.97;;;13.94;100.00
65614;BME280;52283;49.292;10.572;2022-10-16T07:19:31;96647.06;;;13.99;100.00
65614;BME280;52283;49.292;10.572;2022-10-16T07:21:59;96638.03;;;14.06;100.00
65614;BME280;52283;49.292;10.572;2022-10-16T07:24:25;96645.19;;;14.07;100.00
65614;BME280;52283;49.292;10.572;2022-10-16T07:26:52;96636.09;;;13.95;100.00
65614;BME280;52283;49.292;10.572;2022-10-16T07:29:20;96625.63;;;13.90;100.00
65614;BME280;52283;49.292;10.572;2022-10-16T07:31:47;96628.22;;;13.88;100.00
65614;BME280;52283;49.292;10.572;2022-10-16T07:34:15;96640.97;;;13.89;100.00
65614;BME280;52283;49.292;10.572;2022-10-16T07:36:42;96638.91;;;13.95;100.00
65614;BME280;52283;49.292;10.572;2022-10-16T07:39:10;96647.94;;;14.18;100.00
65614;BME280;52283;49.292;10.572;2022-10-16T07:41:36;96647.81;;;14.29;100.00
65614;BME280;52283;49.292;10.572;2022-10-16T07:44:03;96663.09;;;14.34;100.00
65614;BME280;52283;49.292;10.572;2022-10-16T07:46:31;96669.47;;;14.40;100.00
65614;BME280;52283;49.292;10.572;2022-10-16T07:48:58;96665.81;;;14.51;100.00
65614;BME280;52283;49.292;10.572;2022-10-16T07:51:25;96661.69;;;14.22;100.00
65614;BME280;52283;49.292;10.572;2022-10-16T07:53:52;96665.91;;;14.34;100.00
65614;BME280;52283;49.292;10.572;2022-10-16T07:56:21;96664.06;;;14.42;100.00
65614;BME280;52283;49.292;10.572;2022-10-16T07:58:48;96671.13;;;14.54;100.00
65614;BME280;52283;49.292;10.572;2022-10-16T08:01:16;96675.22;;;14.59;100.00
65614;BME280;52283;49.292;10.572;2022-10-16T08:03:43;96681.00;;;14.67;100.00
65614;BME280;52283;49.292;10.572;2022-10-16T08:06:10;96671.63;;;14.58;100.00
65614;BME280;52283;49.292;10.572;2022-10-16T08:08:37;96684.50;;;14.48;100.00
65614;BME280;52283;49.292;10.572;2022-10-16T08:11:03;96678.81;;;14.54;100.00
65614;BME280;52283;49.292;10.572;2022-10-16T08:13:31;96678.81;;;14.54;100.00
65614;BME280;52283;49.292;10.572;2022-10-16T08:15:58;96683.91;;;14.55;100.00
65614;BME280;52283;49.292;10.572;2022-10-16T08:18:25;96679.97;;;14.70;100.00
65614;BME280;52283;49.292;10.572;2022-10-16T08:20:55;96681.31;;;14.87;100.00
65614;BME280;52283;49.292;10.572;2022-10-16T08:23:22;96684.31;;;14.95;100.00
65614;BME280;52283;49.292;10.572;2022-10-16T08:25:51;96680.38;;;15.04;100.00
65614;BME280;52283;49.292;10.572;2022-10-16T08:28:17;96686.66;;;14.91;100.00
65614;BME280;52283;49.292;10.572;2022-10-16T08:30:45;96685.06;;;14.95;100.00
65614;BME280;52283;49.292;10.572;2022-10-16T08:33:12;96687.88;;;14.95;100.00
65614;BME280;52283;49.292;10.572;2022-10-16T08:35:38;96692.34;;;15.10;100.00
65614;BME280;52283;49.292;10.572;2022-10-16T08:38:05;96694.78;;;15.19;100.00
65614;BME280;52283;49.292;10.572;2022-10-16T08:40:34;96691.03;;;15.11;100.00
65614;BME280;52283;49.292;10.572;2022-10-16T08:43:16;96688.59;;;15.26;100.00
65614;BME280;52283;49.292;10.572;2022-10-16T08:46:03;96688.28;;;15.30;100.00
65614;BME280;52283;49.292;10.572;2022-10-16T08:48:39;96693.84;;;15.35;100.00
65614;BME280;52283;49.292;10.572;2022-10-16T08:51:09;96680.75;;;15.38;100.00
65614;BME280;52283;49.292;10.572;2022-10-16T08:53:41;96688.19;;;15.60;100.00
65614;BME280;52283;49.292;10.572;2022-10-16T08:56:09;96683.41;;;15.73;100.00
65614;BME280;52283;49.292;10.572;2022-10-16T08:58:35;96695.75;;;15.70;100.00
65614;BME280;52283;49.292;10.572;2022-10-16T09:01:04;96705.41;;;15.75;100.00
65614;BME280;52283;49.292;10.572;2022-10-16T09:03:50;96710.72;;;15.60;100.00
65614;BME280;52283;49.292;10.572;2022-10-16T09:06:31;96706.81;;;15.44;100.00
65614;BME280;52283;49.292;10.572;2022-10-16T09:09:16;96714.75;;;15.40;100.00
65614;BME280;52283;49.292;10.572;2022-10-16T09:11:49;96716.97;;;15.28;100.00
65614;BME280;52283;49.292;10.572;2022-10-16T09:14:33;96715.78;;;15.18;100.00
65614;BME280;52283;49.292;10.572;2022-10-16T09:17:20;96713.78;;;15.13;100.00
65614;BME280;52283;49.292;10.572;2022-10-16T09:19:53;96704.88;;;15.09;100.00
65614;BME280;52283;49.292;10.572;2022-10-16T09:22:26;96706.94;;;15.08;100.00
65614;BME280;52283;49.292;10.572;2022-10-16T09:24:54;96706.66;;;15.12;100.00
65614;BME280;52283;49.292;10.572;2022-10-16T09:27:20;96704.53;;;15.18;100.00
65614;BME280;52283;49.292;10.572;2022-10-16T09:29:47;96712.03;;;15.34;100.00
65614;BME280;52283;49.292;10.572;2022-10-16T09:32:18;96708.69;;;15.36;100.00
65614;BME280;52283;49.292;10.572;2022-10-16T09:34:47;96713.03;;;15.55;100.00
65614;BME280;52283;49.292;10.572;2022-10-16T09:37:17;96720.69;;;15.61;100.00
65614;BME280;52283;49.292;10.572;2022-10-16T09:39:45;96719.72;;;15.77;100.00
65614;BME280;52283;49.292;10.572;2022-10-16T09:42:15;96710.97;;;15.99;100.00
65614;BME280;52283;49.292;10.572;2022-10-16T09:44:42;96720.66;;;16.04;100.00
65614;BME280;52283;49.292;10.572;2022-10-16T09:47:16;96719.19;;;16.16;100.00
65614;BME280;52283;49.292;10.572;2022-10-16T09:49:51;96717.13;;;16.16;100.00
65614;BME280;52283;49.292;10.572;2022-10-16T09:52:19;96720.47;;;16.34;100.00
65614;BME280;52283;49.292;10.572;2022-10-16T09:54:50;96717.22;;;16.43;100.00
65614;BME280;52283;49.292;10.572;2022-10-16T09:57:17;96725.59;;;16.67;100.00
65614;BME280;52283;49.292;10.572;2022-10-16T09:59:47;96727.50;;;16.91;100.00
65614;BME280;52283;49.292;10.572;2022-10-16T10:02:17;96737.50;;;17.05;100.00
65614;BME280;52283;49.292;10.572;2022-10-16T10:04:49;96731.97;;;17.00;100.00
65614;BME280;52283;49.292;10.572;2022-10-16T10:07:18;96744.34;;;16.97;100.00
65614;BME280;52283;49.292;10.572;2022-10-16T10:09:47;96745.97;;;17.05;100.00
65614;BME280;52283;49.292;10.572;2022-10-16T10:12:21;96735.75;;;17.02;100.00
65614;BME280;52283;49.292;10.572;2022-10-16T10:14:49;96739.38;;;17.43;100.00
65614;BME280;52283;49.292;10.572;2022-10-16T10:17:19;96745.91;;;17.64;100.00
65614;BME280;52283;49.292;10.572;2022-10-16T10:19:51;96747.03;;;17.74;100.00
65614;BME280;52283;49.292;10.572;2022-10-16T10:22:22;96747.44;;;17.91;100.00
65614;BME280;52283;49.292;10.572;2022-10-16T10:25:14;96746.19;;;18.13;100.00
65614;BME280;52283;49.292;10.572;2022-10-16T10:27:54;96740.09;;;18.09;100.00
65614;BME280;52283;49.292;10.572;2022-10-16T10:30:24;96738.91;;;18.05;100.00
65614;BME280;52283;49.292;10.572;2022-10-16T10:33:14;96733.75;;;17.82;100.00
65614;BME280;52283;49.292;10.572;2022-10-16T10:35:45;96731.13;;;17.84;100.00
65614;BME280;52283;49.292;10.572;2022-10-16T10:38:27;96741.78;;;17.78;100.00
65614;BME280;52283;49.292;10.572;2022-10-16T10:41:02;96740.91;;;17.83;100.00
65614;BME280;52283;49.292;10.572;2022-10-16T10:43:45;96750.13;;;17.97;100.00
65614;BME280;52283;49.292;10.572;2022-10-16T10:46:20;96748.84;;;17.85;100.00
65614;BME280;52283;49.292;10.572;2022-10-16T10:48:59;96746.91;;;17.80;100.00
65614;BME280;52283;49.292;10.572;2022-10-16T10:51:35;96742.56;;;18.26;100.00
65614;BME280;52283;49.292;10.572;2022-10-16T10:54:13;96742.38;;;18.79;98.40
65614;BME280;52283;49.292;10.572;2022-10-16T10:56:46;96747.06;;;18.76;100.00
65614;BME280;52283;49.292;10.572;2022-10-16T10:59:37;96744.66;;;19.01;96.47
65614;BME280;52283;49.292;10.572;2022-10-16T11:02:15;96750.22;;;18.94;97.58
65614;BME280;52283;49.292;10.572;2022-10-16T11:05:02;96750.56;;;18.90;96.29
65614;BME280;52283;49.292;10.572;2022-10-16T11:07:38;96749.00;;;19.02;99.06
65614;BME280;52283;49.292;10.572;2022-10-16T11:10:13;96755.91;;;19.43;93.36
65614;BME280;52283;49.292;10.572;2022-10-16T11:12:43;96758.63;;;19.28;91.79
65614;BME280;52283;49.292;10.572;2022-10-16T11:15:14;96763.38;;;19.54;90.87
65614;BME280;52283;49.292;10.572;2022-10-16T11:17:46;96754.72;;;19.59;86.83
65614;BME280;52283;49.292;10.572;2022-10-16T11:20:18;96756.16;;;19.53;83.31
65614;BME280;52283;49.292;10.572;2022-10-16T11:22:49;96762.50;;;19.38;84.87
65614;BME280;52283;49.292;10.572;2022-10-16T11:25:20;96754.31;;;19.34;85.15
65614;BME280;52283;49.292;10.572;2022-10-16T11:27:51;96755.63;;;19.54;84.69
65614;BME280;52283;49.292;10.572;2022-10-16T11:30:22;96747.44;;;20.15;83.94
65614;BME280;52283;49.292;10.572;2022-10-16T11:33:02;96760.31;;;20.75;77.65
65614;BME280;52283;49.292;10.572;2022-10-16T11:35:38;96745.53;;;21.68;74.03
65614;BME280;52283;49.292;10.572;2022-10-16T11:38:10;96739.69;;;22.21;70.71
65614;BME280;52283;49.292;10.572;2022-10-16T11:40:41;96744.03;;;21.67;72.62
65614;BME280;52283;49.292;10.572;2022-10-16T11:43:13;96736.31;;;21.45;72.37
65614;BME280;52283;49.292;10.572;2022-10-16T11:45:43;96749.50;;;20.81;76.77
65614;BME280;52283;49.292;10.572;2022-10-16T11:48:17;96748.59;;;20.94;77.73
65614;BME280;52283;49.292;10.572;2022-10-16T11:50:51;96744.63;;;21.35;74.19
65614;BME280;52283;49.292;10.572;2022-10-16T11:53:26;96743.78;;;21.80;71.55
65614;BME280;52283;49.292;10.572;2022-10-16T11:55:54;96736.25;;;21.68;66.85
65614;BME280;52283;49.292;10.572;2022-10-16T11:58:25;96730.06;;;22.09;65.43
65614;BME280;52283;49.292;10.572;2022-10-16T12:01:00;96742.59;;;21.99;66.80
65614;BME280;52283;49.292;10.572;2022-10-16T12:03:35;96749.31;;;20.72;71.79
65614;BME280;52283;49.292;10.572;2022-10-16T12:06:18;96744.78;;;21.22;72.09
65614;BME280;52283;49.292;10.572;2022-10-16T12:08:49;96746.66;;;20.81;74.12
65614;BME280;52283;49.292;10.572;2022-10-16T12:11:23;96750.06;;;20.64;77.06
65614;BME280;52283;49.292;10.572;2022-10-16T12:13:50;96749.84;;;20.47;74.42
65614;BME280;52283;49.292;10.572;2022-10-16T12:16:22;96757.25;;;20.14;77.50
65614;BME280;52283;49.292;10.572;2022-10-16T12:19:03;96747.50;;;20.38;77.72
65614;BME280;52283;49.292;10.572;2022-10-16T12:21:37;96744.03;;;20.17;78.09
65614;BME280;52283;49.292;10.572;2022-10-16T12:24:05;96749.69;;;20.09;79.92
65614;BME280;52283;49.292;10.572;2022-10-16T12:26:33;96754.00;;;20.46;78.62
65614;BME280;52283;49.292;10.572;2022-10-16T12:29:13;96740.06;;;21.01;74.57
65614;BME280;52283;49.292;10.572;2022-10-16T12:31:44;96730.41;;;21.43;73.13
65614;BME280;52283;49.292;10.572;2022-10-16T12:34:21;96736.13;;;22.06;69.69
65614;BME280;52283;49.292;10.572;2022-10-16T12:36:50;96736.00;;;21.81;68.47
65614;BME280;52283;49.292;10.572;2022-10-16T12:39:21;96732.53;;;21.98;67.92
65614;BME280;52283;49.292;10.572;2022-10-16T12:42:00;96746.06;;;21.82;70.13
65614;BME280;52283;49.292;10.572;2022-10-16T12:44:32;96744.91;;;21.92;69.21
65614;BME280;52283;49.292;10.572;2022-10-16T12:47:00;96740.25;;;21.42;71.12
65614;BME280;52283;49.292;10.572;2022-10-16T12:49:32;96741.19;;;21.44;70.85
65614;BME280;52283;49.292;10.572;2022-10-16T12:52:03;96734.97;;;21.46;71.20